PATL/TLJ METAR and TAF weather

Enter ICAO airport designator
Station Type Date Time Source
PATL METAR 2021/09/24 02:55 UTC NOAA

PATL 240255Z AUTO 04012KT 010V080 10SM SCT060 BKN095 03/M08 A2956 RMK AO2 SLP021 T00301077 57008


Station Type Date Time Source
PATL Decoded METAR 2021/09/24 02:55 UTC NOAA

Takotna, Tatalina LRRS Airport, AK, United States (PATL) 62-54N 155-59W
Sep 23, 2021 - 10:55 PM EDT / 2021.09.24 0255 UTC
Wind: from the NE (040 degrees) at 14 MPH (12 KT) (direction variable):0
Visibility: 10 mile(s):0
Sky conditions: mostly cloudy
Temperature: 37.4 F (3.0 C)
Dew Point: 18.1 F (-7.7 C)
Relative Humidity: 45%
Pressure (altimeter): 29.56 in. Hg (1001 hPa)
Pressure tendency: 0.02 inches (0.8 hPa) lower than three hours ago
ob: PATL 240255Z AUTO 04012KT 010V080 10SM SCT060 BKN095 03/M08 A2956 RMK AO2 SLP021 T00301077 57008
cycle: 3

Station Type Date Time Source
PATL TAF 2012/01/12 14:06 UTC NOAA

TAF PATL 1214/1320 VRB06KT 9999 FEW050 SCT110 QNH2998INS TM26/1300Z TM32/1315Z

Example: see airport list